createdAt,value
2022-11-14T00:00:58.897Z,99997.81
2022-11-14T00:03:25.420Z,99993.56
2022-11-14T00:05:51.907Z,99990.06
2022-11-14T00:08:25.219Z,99992.00
2022-11-14T00:10:52.116Z,99996.47
2022-11-14T00:13:20.085Z,99984.41
2022-11-14T00:15:50.527Z,99974.97
2022-11-14T00:18:17.622Z,99981.22
2022-11-14T00:20:47.264Z,99974.38
2022-11-14T00:23:13.782Z,99962.38
2022-11-14T00:25:40.356Z,99960.75
2022-11-14T00:28:07.007Z,99958.31
2022-11-14T00:30:33.477Z,99960.28
2022-11-14T00:32:59.895Z,99954.34
2022-11-14T00:35:26.501Z,99942.34
2022-11-14T00:37:53.017Z,99947.78
2022-11-14T00:40:19.488Z,99941.03
2022-11-14T00:42:46.046Z,99939.56
2022-11-14T00:45:12.548Z,99931.00
2022-11-14T00:47:39.136Z,99925.13
2022-11-14T00:50:06.369Z,99935.81
2022-11-14T00:52:32.851Z,99932.47
2022-11-14T00:54:59.251Z,99939.63
2022-11-14T00:57:25.751Z,99930.19
2022-11-14T00:59:55.659Z,99931.16
2022-11-14T01:02:22.716Z,99935.53
2022-11-14T01:04:49.232Z,99933.91
2022-11-14T01:07:15.655Z,99939.22
2022-11-14T01:09:42.152Z,99919.22
2022-11-14T01:12:08.753Z,99934.13
2022-11-14T01:14:35.213Z,99929.78
2022-11-14T01:17:01.734Z,99928.94
2022-11-14T01:19:28.222Z,99927.22
2022-11-14T01:21:54.831Z,99923.81
2022-11-14T01:24:21.285Z,99920.34
2022-11-14T01:26:47.826Z,99918.63
2022-11-14T01:29:14.322Z,99914.31
2022-11-14T01:31:42.194Z,99911.69
2022-11-14T01:34:08.725Z,99903.84
2022-11-14T01:36:35.273Z,99904.78
2022-11-14T01:39:01.770Z,99896.91
2022-11-14T01:41:28.257Z,99901.22
2022-11-14T01:43:54.702Z,99895.06
2022-11-14T01:46:42.087Z,99897.81
2022-11-14T01:49:20.502Z,99891.50
2022-11-14T01:51:51.323Z,99878.34
2022-11-14T01:54:26.526Z,99872.28
2022-11-14T01:56:57.422Z,99867.03
2022-11-14T01:59:31.150Z,99867.94
2022-11-14T02:02:04.049Z,99871.34
2022-11-14T02:04:38.096Z,99867.03
2022-11-14T02:07:06.335Z,99866.94
2022-11-14T02:09:37.271Z,99858.31
2022-11-14T02:12:07.196Z,99854.78
2022-11-14T02:14:35.969Z,99858.31
2022-11-14T02:17:28.045Z,99859.25
2022-11-14T02:20:14.332Z,99857.63
2022-11-14T02:22:42.645Z,99840.97
2022-11-14T02:25:11.448Z,99848.03
2022-11-14T02:27:39.436Z,99840.25
2022-11-14T02:30:12.767Z,99840.38
2022-11-14T02:33:08.945Z,99841.22
2022-11-14T02:35:26.050Z,99843.06
2022-11-14T02:37:52.535Z,99841.38
2022-11-14T02:40:19.137Z,99837.13
2022-11-14T02:42:45.761Z,99835.38
2022-11-14T02:45:12.792Z,99836.25
2022-11-14T02:47:39.257Z,99830.25
2022-11-14T02:50:06.245Z,99825.91
2022-11-14T02:52:32.782Z,99825.91
2022-11-14T02:54:59.374Z,99823.28
2022-11-14T02:57:25.886Z,99816.34
2022-11-14T02:59:52.405Z,99814.59
2022-11-14T03:02:18.968Z,99814.66
2022-11-14T03:04:45.574Z,99814.66
2022-11-14T03:07:12.278Z,99815.56
2022-11-14T03:09:38.811Z,99802.53
2022-11-14T03:12:05.881Z,99800.84
2022-11-14T03:14:32.370Z,99803.47
2022-11-14T03:16:58.993Z,99799.06
2022-11-14T03:19:25.418Z,99804.31
2022-11-14T03:21:51.947Z,99800.75
2022-11-14T03:24:18.491Z,99799.88
2022-11-14T03:26:45.330Z,99796.31
2022-11-14T03:29:11.780Z,99796.31
2022-11-14T03:31:38.315Z,99791.84
2022-11-14T03:34:04.809Z,99791.84
2022-11-14T03:36:31.395Z,99788.41
2022-11-14T03:38:57.904Z,99787.59
2022-11-14T03:41:24.411Z,99790.28
2022-11-14T03:43:50.920Z,99790.44
2022-11-14T03:46:17.398Z,99793.94
2022-11-14T03:48:43.896Z,99791.50
2022-11-14T03:51:10.421Z,99792.47
2022-11-14T03:53:36.945Z,99790.75
2022-11-14T03:56:03.557Z,99775.13
2022-11-14T03:58:30.515Z,99776.88
2022-11-14T04:00:57.527Z,99766.47
2022-11-14T04:03:24.609Z,99770.00
2022-11-14T04:09:33.596Z,99765.75
2022-11-14T04:12:00.101Z,99757.97
2022-11-14T04:14:26.570Z,99762.34
2022-11-14T04:16:53.136Z,99758.91
2022-11-14T04:19:19.673Z,99753.66
2022-11-14T04:21:46.196Z,99759.72
2022-11-14T04:24:12.705Z,99742.31
2022-11-14T04:26:39.305Z,99751.81
2022-11-14T04:29:05.739Z,99744.88
2022-11-14T04:31:32.345Z,99746.56
2022-11-14T04:33:58.774Z,99746.69
2022-11-14T04:36:25.299Z,99750.19
2022-11-14T04:38:51.906Z,99743.31
2022-11-14T04:41:18.486Z,99737.28
2022-11-14T04:43:50.485Z,99740.88
2022-11-14T04:46:17.498Z,99724.47
2022-11-14T04:48:44.014Z,99727.16
2022-11-14T04:51:10.550Z,99729.06
2022-11-14T04:53:37.094Z,99715.16
2022-11-14T04:56:03.790Z,99721.38
2022-11-14T04:58:30.459Z,99718.81
2022-11-14T05:01:00.125Z,99713.75
2022-11-14T05:03:26.673Z,99704.16
2022-11-14T05:05:53.283Z,99709.50
2022-11-14T05:08:19.744Z,99707.00
2022-11-14T05:10:46.452Z,99694.91
2022-11-14T05:13:13.116Z,99692.41
2022-11-14T05:15:39.624Z,99689.84
2022-11-14T05:18:06.108Z,99693.44
2022-11-14T05:20:32.624Z,99688.28
2022-11-14T05:22:59.298Z,99688.34
2022-11-14T05:25:25.811Z,99682.34
2022-11-14T05:27:52.347Z,99686.72
2022-11-14T05:30:19.029Z,99681.47
2022-11-14T05:32:45.888Z,99676.25
2022-11-14T05:35:12.591Z,99678.03
2022-11-14T05:37:39.259Z,99674.56
2022-11-14T05:40:06.600Z,99678.03
2022-11-14T05:42:33.173Z,99681.47
2022-11-14T05:44:59.713Z,99680.66
2022-11-14T05:47:26.228Z,99676.25
2022-11-14T05:49:52.808Z,99672.78
2022-11-14T05:52:19.286Z,99675.47
2022-11-14T05:54:45.819Z,99661.53
2022-11-14T05:57:12.275Z,99664.22
2022-11-14T05:59:38.799Z,99682.56
2022-11-14T06:02:07.192Z,99672.28
2022-11-14T06:04:33.745Z,99677.56
2022-11-14T06:07:00.318Z,99692.44
2022-11-14T06:09:26.884Z,99686.44
2022-11-14T06:11:53.256Z,99689.13
2022-11-14T06:14:19.793Z,99684.00
2022-11-14T06:16:46.332Z,99685.84
2022-11-14T06:19:12.941Z,99681.53
2022-11-14T06:21:39.467Z,99691.19
2022-11-14T06:24:06.354Z,99689.50
2022-11-14T06:26:32.892Z,99693.09
2022-11-14T06:29:00.721Z,99691.41
2022-11-14T06:31:27.339Z,99689.69
2022-11-14T06:33:53.986Z,99690.59
2022-11-14T06:36:20.545Z,99688.91
2022-11-14T06:38:47.092Z,99686.28
2022-11-14T06:41:18.969Z,99682.88
2022-11-14T06:43:49.537Z,99680.34
2022-11-14T06:46:18.881Z,99688.19
2022-11-14T06:48:46.816Z,99691.69
2022-11-14T06:51:15.027Z,99682.16
2022-11-14T06:53:42.838Z,99683.09
2022-11-14T06:56:11.598Z,99677.91
2022-11-14T06:58:43.938Z,99678.81
2022-11-14T07:01:15.005Z,99668.44
2022-11-14T07:03:42.867Z,99671.91
2022-11-14T07:06:20.326Z,99674.63
2022-11-14T07:08:47.024Z,99671.03
2022-11-14T07:11:26.143Z,99674.59
2022-11-14T07:13:53.623Z,99678.88
2022-11-14T07:16:21.360Z,99675.34
2022-11-14T07:18:47.859Z,99666.69
2022-11-14T07:21:14.512Z,99668.31
2022-11-14T07:23:42.053Z,99659.66
2022-11-14T07:26:10.707Z,99657.97
2022-11-14T07:28:41.363Z,99654.50
2022-11-14T07:31:13.179Z,99668.44
2022-11-14T07:33:40.937Z,99675.34
2022-11-14T07:36:08.728Z,99677.03
2022-11-14T07:38:37.066Z,99677.03
2022-11-14T07:41:11.834Z,99679.59
2022-11-14T07:43:38.516Z,99665.59
2022-11-14T07:46:16.628Z,99651.81
2022-11-14T07:48:43.809Z,99651.66
2022-11-14T07:51:15.476Z,99650.78
2022-11-14T07:53:42.005Z,99646.38
2022-11-14T07:56:09.940Z,99646.38
2022-11-14T07:58:37.824Z,99656.72
2022-11-14T08:01:06.030Z,99655.84
2022-11-14T08:03:33.448Z,99661.84
2022-11-14T08:06:04.815Z,99653.94
2022-11-14T08:08:32.024Z,99639.03
2022-11-14T08:10:59.961Z,99644.13
2022-11-14T08:13:33.146Z,99652.78
2022-11-14T08:16:05.679Z,99658.78
2022-11-14T08:18:35.885Z,99670.69
2022-11-14T08:21:06.035Z,99659.31
2022-11-14T08:23:32.518Z,99666.19
2022-11-14T08:25:59.963Z,99662.56
2022-11-14T08:28:26.541Z,99675.47
2022-11-14T08:30:53.157Z,99677.09
2022-11-14T08:33:19.646Z,99669.13
2022-11-14T08:35:46.182Z,99674.22
2022-11-14T08:38:12.726Z,99681.03
2022-11-14T08:40:40.002Z,99678.28
2022-11-14T08:43:06.455Z,99662.47
2022-11-14T08:45:32.993Z,99668.34
2022-11-14T08:47:59.591Z,99664.72
2022-11-14T08:50:26.094Z,99668.06
2022-11-14T08:52:52.643Z,99667.00
2022-11-14T08:55:20.488Z,99664.25
2022-11-14T08:57:49.575Z,99663.22
2022-11-14T09:00:17.237Z,99667.41
2022-11-14T09:02:43.948Z,99661.09
2022-11-14T09:05:11.157Z,99664.44
2022-11-14T09:07:37.660Z,99670.41
2022-11-14T09:10:07.182Z,99667.63
2022-11-14T09:12:34.128Z,99649.91
2022-11-14T09:15:00.590Z,99653.22
2022-11-14T09:17:27.099Z,99652.16
2022-11-14T09:19:54.074Z,99654.47
2022-11-14T09:22:20.593Z,99657.78
2022-11-14T09:24:47.794Z,99665.44
2022-11-14T09:27:14.437Z,99664.38
2022-11-14T09:29:40.915Z,99656.28
2022-11-14T09:32:07.704Z,99655.22
2022-11-14T09:34:34.172Z,99648.94
2022-11-14T09:37:00.739Z,99645.25
2022-11-14T09:39:27.244Z,99651.97
2022-11-14T09:42:23.145Z,99649.28
2022-11-14T09:44:56.789Z,99653.16
2022-11-14T09:47:28.146Z,99648.63
2022-11-14T09:50:02.974Z,99653.56
2022-11-14T09:52:38.507Z,99647.25
2022-11-14T09:55:30.013Z,99651.34
2022-11-14T09:58:02.596Z,99650.81
2022-11-14T10:00:51.758Z,99645.44
2022-11-14T10:03:58.931Z,99642.41
2022-11-14T10:06:35.701Z,99636.78
2022-11-14T10:09:05.066Z,99637.34
2022-11-14T10:11:49.824Z,99620.59
2022-11-14T10:14:28.192Z,99619.38
2022-11-14T10:17:12.120Z,99613.03
2022-11-14T10:19:44.736Z,99628.38
2022-11-14T10:22:48.503Z,99604.47
2022-11-14T10:25:17.677Z,99595.94
2022-11-14T10:28:24.632Z,99594.50
2022-11-14T10:31:03.290Z,99579.03
2022-11-14T10:33:53.837Z,99582.91
2022-11-14T10:36:41.700Z,99584.03
2022-11-14T10:39:21.939Z,99593.84
2022-11-14T10:42:03.173Z,99584.28
2022-11-14T10:44:38.649Z,99574.69
2022-11-14T10:47:10.697Z,99572.94
2022-11-14T10:49:37.613Z,99571.13
2022-11-14T10:52:14.745Z,99583.50
2022-11-14T10:55:00.267Z,99591.28
2022-11-14T10:57:28.708Z,99570.69
2022-11-14T10:59:55.578Z,99570.13
2022-11-14T11:02:23.143Z,99594.88
2022-11-14T11:04:49.585Z,99591.78
2022-11-14T11:07:41.783Z,99596.09
2022-11-14T11:10:38.622Z,99597.72
2022-11-14T11:13:05.561Z,99586.31
2022-11-14T11:15:40.670Z,99582.03
2022-11-14T11:18:30.355Z,99580.66
2022-11-14T11:21:10.593Z,99573.69
2022-11-14T11:23:54.664Z,99579.31
2022-11-14T11:26:32.411Z,99564.44
2022-11-14T11:29:11.055Z,99563.03
2022-11-14T11:31:49.715Z,99556.56
2022-11-14T11:34:22.642Z,99560.88
2022-11-14T11:36:55.687Z,99557.34
2022-11-14T11:39:29.698Z,99568.50
2022-11-14T11:42:10.167Z,99553.38
2022-11-14T11:44:44.218Z,99545.44
2022-11-14T11:47:16.227Z,99534.69
2022-11-14T11:49:54.221Z,99533.25
2022-11-14T11:52:30.246Z,99527.34
2022-11-14T11:55:08.900Z,99534.03
2022-11-14T11:57:48.679Z,99520.84
2022-11-14T12:00:18.553Z,99511.13
2022-11-14T12:02:50.112Z,99500.09
2022-11-14T12:05:24.863Z,99498.91
2022-11-14T12:08:01.356Z,99498.69
2022-11-14T12:10:32.240Z,99502.47
2022-11-14T12:13:20.156Z,99506.28
2022-11-14T12:16:13.206Z,99506.22
2022-11-14T12:19:05.243Z,99512.06
2022-11-14T12:21:58.851Z,99504.63
2022-11-14T12:24:53.524Z,99507.19
2022-11-14T12:27:23.266Z,99496.34
2022-11-14T12:30:02.605Z,99490.59
2022-11-14T12:32:34.144Z,99493.69
2022-11-14T12:35:06.651Z,99493.53
2022-11-14T12:37:36.192Z,99495.25
2022-11-14T12:40:08.679Z,99508.41
2022-11-14T12:42:35.794Z,99500.22
2022-11-14T12:45:02.421Z,99499.91
2022-11-14T12:47:29.280Z,99488.44
2022-11-14T12:49:58.554Z,99482.50
2022-11-14T12:52:48.781Z,99482.75
2022-11-14T12:55:24.260Z,99475.78
2022-11-14T12:58:17.233Z,99480.84
2022-11-14T13:00:46.433Z,99478.66
2022-11-14T13:03:28.080Z,99476.16
2022-11-14T13:05:59.703Z,99465.06
2022-11-14T13:11:50.264Z,99461.41
2022-11-14T13:14:39.321Z,99455.31
2022-11-14T13:17:44.002Z,99442.72
2022-11-14T13:20:46.039Z,99444.25
2022-11-14T13:23:27.803Z,99445.28
2022-11-14T13:26:09.786Z,99449.16
2022-11-14T13:28:36.374Z,99441.53
2022-11-14T13:31:06.930Z,99436.78
2022-11-14T13:33:53.263Z,99443.66
2022-11-14T13:36:45.030Z,99446.91
2022-11-14T13:39:30.171Z,99440.72
2022-11-14T13:42:26.321Z,99440.25
2022-11-14T13:45:02.816Z,99441.91
2022-11-14T13:47:46.573Z,99426.34
2022-11-14T13:50:26.588Z,99426.28
2022-11-14T13:52:53.522Z,99415.91
2022-11-14T13:55:32.451Z,99414.19
2022-11-14T13:58:15.051Z,99412.59
2022-11-14T14:01:29.095Z,99420.78
2022-11-14T14:04:33.208Z,99406.88
2022-11-14T14:07:19.700Z,99405.94
2022-11-14T14:10:20.325Z,99404.16
2022-11-14T14:12:49.752Z,99415.63
2022-11-14T14:15:35.445Z,99414.69
2022-11-14T14:18:26.613Z,99402.56
2022-11-14T14:21:12.150Z,99390.75
2022-11-14T14:24:31.063Z,99394.38
2022-11-14T14:27:19.527Z,99409.41
2022-11-14T14:29:59.774Z,99409.69
2022-11-14T14:32:26.539Z,99392.41
2022-11-14T14:34:56.966Z,99396.94
2022-11-14T14:37:26.320Z,99392.47
2022-11-14T14:39:56.918Z,99390.28
2022-11-14T14:42:24.243Z,99392.88
2022-11-14T14:44:51.091Z,99394.31
2022-11-14T14:47:33.207Z,99386.38
2022-11-14T14:50:06.312Z,99388.78
2022-11-14T14:52:37.525Z,99388.00
2022-11-14T14:55:08.584Z,99384.19
2022-11-14T14:57:35.042Z,99385.75
2022-11-14T15:00:25.839Z,99381.63
2022-11-14T15:02:56.502Z,99384.31
2022-11-14T15:05:28.363Z,99388.06
2022-11-14T15:08:00.604Z,99388.16
2022-11-14T15:10:30.018Z,99387.03
2022-11-14T15:12:58.566Z,99387.69
2022-11-14T15:15:26.506Z,99376.59
2022-11-14T15:17:55.022Z,99371.81
2022-11-14T15:20:25.673Z,99373.06
2022-11-14T15:23:10.277Z,99372.81
2022-11-14T15:25:37.666Z,99369.91
2022-11-14T15:28:05.381Z,99379.53
2022-11-14T15:30:34.884Z,99377.72
2022-11-14T15:33:04.557Z,99375.91
2022-11-14T15:35:38.214Z,99375.75
2022-11-14T15:38:43.224Z,99368.03
2022-11-14T15:41:18.987Z,99372.06
2022-11-14T15:43:45.655Z,99361.72
2022-11-14T15:46:48.035Z,99361.69
2022-11-14T15:49:14.501Z,99350.16
2022-11-14T15:51:47.247Z,99350.75
2022-11-14T15:54:27.176Z,99344.09
2022-11-14T15:56:55.767Z,99346.84
2022-11-14T15:59:23.264Z,99343.81
2022-11-14T16:01:54.492Z,99338.25
2022-11-14T16:04:24.726Z,99337.88
2022-11-14T16:06:51.242Z,99335.81
2022-11-14T16:11:43.851Z,99328.88
2022-11-14T16:14:10.418Z,99332.81
2022-11-14T16:16:36.979Z,99344.66
2022-11-14T16:19:04.067Z,99343.19
2022-11-14T16:21:30.652Z,99350.50
2022-11-14T16:23:57.963Z,99351.66
2022-11-14T16:26:27.489Z,99344.91
2022-11-14T16:28:54.312Z,99340.00
2022-11-14T16:31:21.070Z,99334.06
2022-11-14T16:33:47.566Z,99338.72
2022-11-14T16:36:14.198Z,99334.50
2022-11-14T16:38:40.735Z,99340.00
2022-11-14T16:41:08.697Z,99338.53
2022-11-14T16:43:35.657Z,99336.13
2022-11-14T16:46:06.086Z,99339.19
2022-11-14T16:48:32.802Z,99323.56
2022-11-14T16:51:14.863Z,99327.34
2022-11-14T16:53:55.274Z,99317.94
2022-11-14T16:56:21.841Z,99314.47
2022-11-14T16:58:53.032Z,99317.22
2022-11-14T17:01:21.356Z,99311.22
2022-11-14T17:03:48.139Z,99304.25
2022-11-14T17:06:14.636Z,99313.00
2022-11-14T17:08:41.194Z,99310.28
2022-11-14T17:11:10.024Z,99298.75
2022-11-14T17:13:37.833Z,99303.81
2022-11-14T17:16:05.151Z,99299.28
2022-11-14T17:18:38.167Z,99302.44
2022-11-14T17:21:06.632Z,99294.22
2022-11-14T17:23:33.493Z,99299.19
2022-11-14T17:26:09.439Z,99301.81
2022-11-14T17:28:38.494Z,99288.28
2022-11-14T17:31:08.594Z,99295.13
2022-11-14T17:33:35.953Z,99299.25
2022-11-14T17:36:07.593Z,99303.56
2022-11-14T17:38:36.269Z,99304.22
2022-11-14T17:41:06.274Z,99296.03
2022-11-14T17:43:38.702Z,99291.50
2022-11-14T17:46:09.844Z,99287.69
2022-11-14T17:48:40.743Z,99291.91
2022-11-14T17:51:10.392Z,99290.00
2022-11-14T17:53:37.470Z,99278.50
2022-11-14T17:56:04.220Z,99275.75
2022-11-14T17:58:32.229Z,99280.19
2022-11-14T18:00:59.427Z,99282.72
2022-11-14T18:03:27.181Z,99282.72
2022-11-14T18:05:56.075Z,99272.97
2022-11-14T18:08:22.675Z,99273.81
2022-11-14T18:10:49.163Z,99271.09
2022-11-14T18:13:15.641Z,99272.75
2022-11-14T18:15:42.136Z,99275.28
2022-11-14T18:18:08.704Z,99267.25
2022-11-14T18:20:38.033Z,99270.72
2022-11-14T18:23:04.536Z,99264.41
2022-11-14T18:25:31.630Z,99256.47
2022-11-14T18:27:58.194Z,99252.88
2022-11-14T18:30:40.976Z,99262.47
2022-11-14T18:33:08.457Z,99262.47
2022-11-14T18:35:35.023Z,99260.81
2022-11-14T18:38:01.452Z,99258.16
2022-11-14T18:40:28.065Z,99247.59
2022-11-14T18:42:54.617Z,99252.03
2022-11-14T18:45:21.088Z,99255.53
2022-11-14T18:47:47.585Z,99250.25
2022-11-14T18:50:14.216Z,99257.19
2022-11-14T18:52:40.685Z,99243.03
2022-11-14T18:55:08.043Z,99246.41
2022-11-14T18:57:34.583Z,99253.38
2022-11-14T19:00:01.113Z,99253.28
2022-11-14T19:02:27.700Z,99249.78
2022-11-14T19:04:54.357Z,99242.72
2022-11-14T19:07:20.944Z,99247.03
2022-11-14T19:09:47.526Z,99235.59
2022-11-14T19:12:22.014Z,99234.69
2022-11-14T19:14:52.968Z,99231.06
2022-11-14T19:17:22.656Z,99238.03
2022-11-14T19:19:50.287Z,99239.00
2022-11-14T19:22:17.177Z,99231.94
2022-11-14T19:24:45.016Z,99230.09
2022-11-14T19:27:12.135Z,99232.75
2022-11-14T19:29:38.670Z,99230.00
2022-11-14T19:32:05.832Z,99227.34
2022-11-14T19:34:32.438Z,99231.56
2022-11-14T19:37:00.713Z,99221.84
2022-11-14T19:39:27.910Z,99224.50
2022-11-14T19:41:54.528Z,99220.03
2022-11-14T19:44:21.032Z,99228.69
2022-11-14T19:46:48.329Z,99223.41
2022-11-14T19:49:15.112Z,99228.47
2022-11-14T19:51:41.730Z,99228.47
2022-11-14T19:54:09.979Z,99225.69
2022-11-14T19:56:37.217Z,99223.91
2022-11-14T19:59:09.606Z,99223.78
2022-11-14T20:01:41.619Z,99229.91
2022-11-14T20:04:11.880Z,99222.94
2022-11-14T20:06:39.245Z,99229.69
2022-11-14T20:09:08.390Z,99233.28
2022-11-14T20:11:35.230Z,99228.72
2022-11-14T20:14:02.787Z,99231.34
2022-11-14T20:16:31.635Z,99226.94
2022-11-14T20:19:00.748Z,99224.19
2022-11-14T20:21:30.530Z,99223.22
2022-11-14T20:23:57.542Z,99227.53
2022-11-14T20:26:24.502Z,99223.09
2022-11-14T20:28:53.856Z,99218.66
2022-11-14T20:31:25.360Z,99219.59
2022-11-14T20:33:53.547Z,99224.78
2022-11-14T20:36:24.055Z,99216.03
2022-11-14T20:38:51.223Z,99217.69
2022-11-14T20:41:18.743Z,99217.69
2022-11-14T20:43:45.352Z,99218.53
2022-11-14T20:46:17.125Z,99216.03
2022-11-14T20:48:44.894Z,99218.41
2022-11-14T20:51:13.840Z,99219.25
2022-11-14T20:53:40.922Z,99214.84
2022-11-14T20:56:08.680Z,99217.47
2022-11-14T20:58:35.297Z,99220.13
2022-11-14T21:01:02.114Z,99220.13
2022-11-14T21:03:28.952Z,99223.59
2022-11-14T21:05:56.475Z,99225.50
2022-11-14T21:08:23.131Z,99224.66
2022-11-14T21:10:57.277Z,99227.41
2022-11-14T21:13:42.816Z,99219.59
2022-11-14T21:16:12.597Z,99217.22
2022-11-14T21:18:43.888Z,99223.56
2022-11-14T21:21:16.714Z,99228.22
2022-11-14T21:23:47.526Z,99228.47
2022-11-14T21:26:19.811Z,99225.09
2022-11-14T21:28:48.382Z,99234.19
2022-11-14T21:31:19.118Z,99230.97
2022-11-14T21:33:46.855Z,99230.97
2022-11-14T21:39:01.191Z,99235.84
2022-11-14T21:41:29.600Z,99230.78
2022-11-14T21:43:59.739Z,99230.31
2022-11-14T21:46:27.466Z,99234.84
2022-11-14T21:48:55.682Z,99231.69
2022-11-14T21:51:25.603Z,99231.81
2022-11-14T21:53:58.922Z,99226.13
2022-11-14T21:56:28.211Z,99227.09
2022-11-14T21:59:14.570Z,99231.66
2022-11-14T22:02:07.689Z,99230.41
2022-11-14T22:04:34.752Z,99227.78
2022-11-14T22:07:03.360Z,99226.31
2022-11-14T22:12:21.263Z,99212.84
2022-11-14T22:14:47.758Z,99207.06
2022-11-14T22:17:14.307Z,99211.84
2022-11-14T22:19:40.878Z,99209.59
2022-11-14T22:22:08.113Z,99209.06
2022-11-14T22:24:34.694Z,99215.75
2022-11-14T22:27:01.130Z,99219.78
2022-11-14T22:29:27.551Z,99228.22
2022-11-14T22:31:55.460Z,99228.75
2022-11-14T22:34:22.244Z,99229.22
2022-11-14T22:36:48.743Z,99230.56
2022-11-14T22:39:15.199Z,99232.59
2022-11-14T22:41:41.782Z,99233.84
2022-11-14T22:44:08.272Z,99225.34
2022-11-14T22:46:34.770Z,99216.66
2022-11-14T22:49:03.852Z,99218.59
2022-11-14T22:51:30.742Z,99212.47
2022-11-14T22:53:58.068Z,99220.38
2022-11-14T22:56:29.301Z,99212.66
2022-11-14T22:58:58.755Z,99207.38
2022-11-14T23:01:27.841Z,99210.97
2022-11-14T23:04:00.122Z,99207.72
2022-11-14T23:06:27.822Z,99210.34
2022-11-14T23:08:55.106Z,99210.56
2022-11-14T23:11:24.054Z,99212.56
2022-11-14T23:13:52.889Z,99214.47
2022-11-14T23:16:21.932Z,99214.56
2022-11-14T23:18:48.887Z,99218.16
2022-11-14T23:21:21.230Z,99210.25
2022-11-14T23:23:56.612Z,99222.34
2022-11-14T23:26:24.522Z,99223.84
2022-11-14T23:28:51.452Z,99218.38
2022-11-14T23:31:20.817Z,99219.09
2022-11-14T23:33:48.983Z,99222.47
2022-11-14T23:36:16.223Z,99215.41
2022-11-14T23:38:42.866Z,99213.53
2022-11-14T23:41:18.368Z,99211.69
2022-11-14T23:43:45.633Z,99207.91
2022-11-14T23:46:12.552Z,99212.16
2022-11-14T23:48:39.269Z,99210.25
2022-11-14T23:51:06.101Z,99205.69
2022-11-14T23:53:32.925Z,99206.34
2022-11-14T23:56:01.378Z,99209.69
2022-11-14T23:58:29.482Z,99213.09
